sensor_id;sensor_type;location;lat;lon;timestamp;P1;durP1;ratioP1;P2;durP2;ratioP2
8596;SDS011;4336;49.310;8.646;2023-01-29T00:01:09;15.77;;;12.10;;
8596;SDS011;4336;49.310;8.646;2023-01-29T00:03:35;14.53;;;12.57;;
8596;SDS011;4336;49.310;8.646;2023-01-29T00:06:05;13.37;;;12.07;;
8596;SDS011;4336;49.310;8.646;2023-01-29T00:08:32;13.27;;;11.97;;
8596;SDS011;4336;49.310;8.646;2023-01-29T00:10:59;13.10;;;11.77;;
8596;SDS011;4336;49.310;8.646;2023-01-29T00:13:26;15.40;;;13.90;;
8596;SDS011;4336;49.310;8.646;2023-01-29T00:15:52;15.60;;;11.90;;
8596;SDS011;4336;49.310;8.646;2023-01-29T00:18:20;12.47;;;11.27;;
8596;SDS011;4336;49.310;8.646;2023-01-29T00:20:46;13.73;;;11.03;;
8596;SDS011;4336;49.310;8.646;2023-01-29T00:23:12;12.20;;;11.00;;
8596;SDS011;4336;49.310;8.646;2023-01-29T00:25:40;14.87;;;11.40;;
8596;SDS011;4336;49.310;8.646;2023-01-29T00:28:06;12.77;;;11.43;;
8596;SDS011;4336;49.310;8.646;2023-01-29T00:30:32;12.47;;;11.10;;
8596;SDS011;4336;49.310;8.646;2023-01-29T00:32:59;12.30;;;11.03;;
8596;SDS011;4336;49.310;8.646;2023-01-29T00:35:26;12.77;;;11.40;;
8596;SDS011;4336;49.310;8.646;2023-01-29T00:37:53;11.33;;;10.23;;
8596;SDS011;4336;49.310;8.646;2023-01-29T00:40:20;11.47;;;10.37;;
8596;SDS011;4336;49.310;8.646;2023-01-29T00:42:47;12.20;;;11.10;;
8596;SDS011;4336;49.310;8.646;2023-01-29T00:45:32;15.83;;;13.30;;
8596;SDS011;4336;49.310;8.646;2023-01-29T00:48:01;12.07;;;10.87;;
8596;SDS011;4336;49.310;8.646;2023-01-29T00:50:27;11.23;;;10.23;;
8596;SDS011;4336;49.310;8.646;2023-01-29T00:52:54;13.90;;;11.00;;
8596;SDS011;4336;49.310;8.646;2023-01-29T00:55:20;12.10;;;11.00;;
8596;SDS011;4336;49.310;8.646;2023-01-29T00:57:46;12.43;;;10.90;;
8596;SDS011;4336;49.310;8.646;2023-01-29T01:00:14;12.03;;;10.93;;
8596;SDS011;4336;49.310;8.646;2023-01-29T01:02:41;12.27;;;11.07;;
8596;SDS011;4336;49.310;8.646;2023-01-29T01:05:26;12.13;;;11.03;;
8596;SDS011;4336;49.310;8.646;2023-01-29T01:07:53;11.37;;;10.27;;
8596;SDS011;4336;49.310;8.646;2023-01-29T01:10:20;11.70;;;9.93;;
8596;SDS011;4336;49.310;8.646;2023-01-29T01:15:15;12.57;;;11.37;;
8596;SDS011;4336;49.310;8.646;2023-01-29T01:17:44;12.23;;;11.07;;
8596;SDS011;4336;49.310;8.646;2023-01-29T01:20:13;12.50;;;11.10;;
8596;SDS011;4336;49.310;8.646;2023-01-29T01:22:39;16.00;;;11.47;;
8596;SDS011;4336;49.310;8.646;2023-01-29T01:25:06;11.97;;;10.87;;
8596;SDS011;4336;49.310;8.646;2023-01-29T01:27:32;15.77;;;10.83;;
8596;SDS011;4336;49.310;8.646;2023-01-29T01:29:59;11.90;;;10.77;;
8596;SDS011;4336;49.310;8.646;2023-01-29T01:32:25;11.33;;;10.07;;
8596;SDS011;4336;49.310;8.646;2023-01-29T01:34:51;11.40;;;10.30;;
8596;SDS011;4336;49.310;8.646;2023-01-29T01:37:18;12.70;;;10.90;;
8596;SDS011;4336;49.310;8.646;2023-01-29T01:39:45;13.47;;;11.43;;
8596;SDS011;4336;49.310;8.646;2023-01-29T01:42:13;12.13;;;11.03;;
8596;SDS011;4336;49.310;8.646;2023-01-29T01:44:56;12.50;;;11.30;;
8596;SDS011;4336;49.310;8.646;2023-01-29T01:47:29;13.00;;;11.70;;
8596;SDS011;4336;49.310;8.646;2023-01-29T01:49:56;12.80;;;11.50;;
8596;SDS011;4336;49.310;8.646;2023-01-29T01:52:23;12.40;;;11.10;;
8596;SDS011;4336;49.310;8.646;2023-01-29T01:54:50;12.50;;;11.03;;
8596;SDS011;4336;49.310;8.646;2023-01-29T01:57:17;12.13;;;11.07;;
8596;SDS011;4336;49.310;8.646;2023-01-29T01:59:51;13.33;;;11.67;;
8596;SDS011;4336;49.310;8.646;2023-01-29T02:02:18;12.20;;;10.97;;
8596;SDS011;4336;49.310;8.646;2023-01-29T02:05:03;11.70;;;10.50;;
8596;SDS011;4336;49.310;8.646;2023-01-29T02:07:48;13.23;;;11.87;;
8596;SDS011;4336;49.310;8.646;2023-01-29T02:10:35;11.80;;;10.60;;
8596;SDS011;4336;49.310;8.646;2023-01-29T02:13:03;12.30;;;11.00;;
8596;SDS011;4336;49.310;8.646;2023-01-29T02:15:30;12.93;;;11.63;;
8596;SDS011;4336;49.310;8.646;2023-01-29T02:17:56;12.00;;;10.83;;
8596;SDS011;4336;49.310;8.646;2023-01-29T02:20:23;12.13;;;10.93;;
8596;SDS011;4336;49.310;8.646;2023-01-29T02:25:46;12.40;;;11.20;;
8596;SDS011;4336;49.310;8.646;2023-01-29T02:28:26;13.10;;;11.80;;
8596;SDS011;4336;49.310;8.646;2023-01-29T02:33:29;12.03;;;10.83;;
8596;SDS011;4336;49.310;8.646;2023-01-29T02:38:34;13.80;;;11.30;;
8596;SDS011;4336;49.310;8.646;2023-01-29T02:41:06;12.50;;;11.27;;
8596;SDS011;4336;49.310;8.646;2023-01-29T02:46:29;14.20;;;10.70;;
8596;SDS011;4336;49.310;8.646;2023-01-29T02:49:01;12.03;;;10.80;;
8596;SDS011;4336;49.310;8.646;2023-01-29T02:56:54;12.47;;;11.27;;
8596;SDS011;4336;49.310;8.646;2023-01-29T02:59:22;13.93;;;11.53;;
8596;SDS011;4336;49.310;8.646;2023-01-29T03:01:52;11.77;;;10.57;;
8596;SDS011;4336;49.310;8.646;2023-01-29T03:04:19;12.90;;;11.33;;
8596;SDS011;4336;49.310;8.646;2023-01-29T03:06:51;11.97;;;10.77;;
8596;SDS011;4336;49.310;8.646;2023-01-29T03:09:20;11.73;;;10.57;;
8596;SDS011;4336;49.310;8.646;2023-01-29T03:11:58;11.40;;;10.20;;
8596;SDS011;4336;49.310;8.646;2023-01-29T03:14:43;11.80;;;10.70;;
8596;SDS011;4336;49.310;8.646;2023-01-29T03:17:32;11.60;;;10.40;;
8596;SDS011;4336;49.310;8.646;2023-01-29T03:20:00;12.63;;;11.27;;
8596;SDS011;4336;49.310;8.646;2023-01-29T03:22:27;13.33;;;11.70;;
8596;SDS011;4336;49.310;8.646;2023-01-29T03:24:56;12.17;;;10.97;;
8596;SDS011;4336;49.310;8.646;2023-01-29T03:27:45;12.83;;;11.53;;
8596;SDS011;4336;49.310;8.646;2023-01-29T03:30:39;12.03;;;10.93;;
8596;SDS011;4336;49.310;8.646;2023-01-29T03:33:50;11.67;;;10.47;;
8596;SDS011;4336;49.310;8.646;2023-01-29T03:36:20;12.77;;;11.37;;
8596;SDS011;4336;49.310;8.646;2023-01-29T03:38:47;12.47;;;11.17;;
8596;SDS011;4336;49.310;8.646;2023-01-29T03:44:02;11.17;;;10.07;;
8596;SDS011;4336;49.310;8.646;2023-01-29T03:46:44;12.67;;;10.63;;
8596;SDS011;4336;49.310;8.646;2023-01-29T03:49:24;10.90;;;9.80;;
8596;SDS011;4336;49.310;8.646;2023-01-29T03:51:59;10.53;;;9.57;;
8596;SDS011;4336;49.310;8.646;2023-01-29T03:54:35;11.57;;;10.43;;
8596;SDS011;4336;49.310;8.646;2023-01-29T03:57:08;11.20;;;10.10;;
8596;SDS011;4336;49.310;8.646;2023-01-29T03:59:40;12.30;;;11.07;;
8596;SDS011;4336;49.310;8.646;2023-01-29T04:02:26;11.67;;;10.57;;
8596;SDS011;4336;49.310;8.646;2023-01-29T04:04:56;12.00;;;10.80;;
8596;SDS011;4336;49.310;8.646;2023-01-29T04:07:24;10.97;;;9.97;;
8596;SDS011;4336;49.310;8.646;2023-01-29T04:10:01;12.17;;;10.77;;
8596;SDS011;4336;49.310;8.646;2023-01-29T04:12:35;11.93;;;10.73;;
8596;SDS011;4336;49.310;8.646;2023-01-29T04:15:04;11.50;;;10.40;;
8596;SDS011;4336;49.310;8.646;2023-01-29T04:17:39;11.53;;;10.43;;
8596;SDS011;4336;49.310;8.646;2023-01-29T04:20:26;11.93;;;10.60;;
8596;SDS011;4336;49.310;8.646;2023-01-29T04:22:53;12.40;;;10.63;;
8596;SDS011;4336;49.310;8.646;2023-01-29T04:25:23;11.23;;;10.20;;
8596;SDS011;4336;49.310;8.646;2023-01-29T04:30:31;11.87;;;10.63;;
8596;SDS011;4336;49.310;8.646;2023-01-29T04:35:49;11.90;;;10.80;;
8596;SDS011;4336;49.310;8.646;2023-01-29T04:41:32;11.63;;;10.43;;
8596;SDS011;4336;49.310;8.646;2023-01-29T04:43:40;11.90;;;10.73;;
8596;SDS011;4336;49.310;8.646;2023-01-29T04:46:11;11.97;;;10.83;;
8596;SDS011;4336;49.310;8.646;2023-01-29T04:51:18;12.80;;;11.43;;
8596;SDS011;4336;49.310;8.646;2023-01-29T04:53:49;12.70;;;10.90;;
8596;SDS011;4336;49.310;8.646;2023-01-29T04:56:25;10.97;;;9.93;;
8596;SDS011;4336;49.310;8.646;2023-01-29T04:58:54;11.90;;;10.80;;
8596;SDS011;4336;49.310;8.646;2023-01-29T05:01:23;11.13;;;10.10;;
8596;SDS011;4336;49.310;8.646;2023-01-29T05:03:52;12.87;;;10.07;;
8596;SDS011;4336;49.310;8.646;2023-01-29T05:06:19;10.90;;;9.80;;
8596;SDS011;4336;49.310;8.646;2023-01-29T05:08:46;11.27;;;10.17;;
8596;SDS011;4336;49.310;8.646;2023-01-29T05:11:13;11.50;;;10.40;;
8596;SDS011;4336;49.310;8.646;2023-01-29T05:13:39;11.60;;;10.40;;
8596;SDS011;4336;49.310;8.646;2023-01-29T05:16:08;11.87;;;10.67;;
8596;SDS011;4336;49.310;8.646;2023-01-29T05:18:37;11.57;;;10.30;;
8596;SDS011;4336;49.310;8.646;2023-01-29T05:21:06;11.50;;;10.30;;
8596;SDS011;4336;49.310;8.646;2023-01-29T05:23:32;11.83;;;10.73;;
8596;SDS011;4336;49.310;8.646;2023-01-29T05:25:59;11.93;;;10.83;;
8596;SDS011;4336;49.310;8.646;2023-01-29T05:28:25;11.33;;;10.20;;
8596;SDS011;4336;49.310;8.646;2023-01-29T05:30:52;11.97;;;10.87;;
8596;SDS011;4336;49.310;8.646;2023-01-29T05:35:48;11.70;;;10.50;;
8596;SDS011;4336;49.310;8.646;2023-01-29T05:38:15;12.63;;;11.33;;
8596;SDS011;4336;49.310;8.646;2023-01-29T05:40:41;12.20;;;10.67;;
8596;SDS011;4336;49.310;8.646;2023-01-29T05:43:12;12.30;;;11.00;;
8596;SDS011;4336;49.310;8.646;2023-01-29T05:45:39;12.50;;;10.90;;
8596;SDS011;4336;49.310;8.646;2023-01-29T05:48:05;12.10;;;10.83;;
8596;SDS011;4336;49.310;8.646;2023-01-29T05:50:31;12.30;;;11.10;;
8596;SDS011;4336;49.310;8.646;2023-01-29T05:52:58;11.70;;;10.50;;
8596;SDS011;4336;49.310;8.646;2023-01-29T05:55:25;11.60;;;10.50;;
8596;SDS011;4336;49.310;8.646;2023-01-29T05:57:53;13.20;;;11.30;;
8596;SDS011;4336;49.310;8.646;2023-01-29T06:00:20;12.73;;;11.40;;
8596;SDS011;4336;49.310;8.646;2023-01-29T06:02:47;11.67;;;10.53;;
8596;SDS011;4336;49.310;8.646;2023-01-29T06:05:13;11.33;;;10.23;;
8596;SDS011;4336;49.310;8.646;2023-01-29T06:07:39;11.70;;;10.60;;
8596;SDS011;4336;49.310;8.646;2023-01-29T06:10:13;12.30;;;11.03;;
8596;SDS011;4336;49.310;8.646;2023-01-29T06:12:40;12.37;;;11.27;;
8596;SDS011;4336;49.310;8.646;2023-01-29T06:15:06;14.57;;;10.70;;
8596;SDS011;4336;49.310;8.646;2023-01-29T06:17:32;12.43;;;11.23;;
8596;SDS011;4336;49.310;8.646;2023-01-29T06:19:59;12.77;;;11.53;;
8596;SDS011;4336;49.310;8.646;2023-01-29T06:22:25;14.33;;;12.80;;
8596;SDS011;4336;49.310;8.646;2023-01-29T06:24:54;15.33;;;13.80;;
8596;SDS011;4336;49.310;8.646;2023-01-29T06:27:20;14.40;;;12.37;;
8596;SDS011;4336;49.310;8.646;2023-01-29T06:29:46;12.47;;;11.20;;
8596;SDS011;4336;49.310;8.646;2023-01-29T06:32:12;12.43;;;11.13;;
8596;SDS011;4336;49.310;8.646;2023-01-29T06:34:39;12.27;;;10.97;;
8596;SDS011;4336;49.310;8.646;2023-01-29T06:37:05;13.47;;;12.10;;
8596;SDS011;4336;49.310;8.646;2023-01-29T06:39:32;12.60;;;11.33;;
8596;SDS011;4336;49.310;8.646;2023-01-29T06:41:58;12.67;;;11.37;;
8596;SDS011;4336;49.310;8.646;2023-01-29T06:44:24;14.47;;;12.03;;
8596;SDS011;4336;49.310;8.646;2023-01-29T06:46:51;13.13;;;11.80;;
8596;SDS011;4336;49.310;8.646;2023-01-29T06:49:17;12.90;;;11.63;;
8596;SDS011;4336;49.310;8.646;2023-01-29T06:51:43;13.07;;;11.73;;
8596;SDS011;4336;49.310;8.646;2023-01-29T06:54:09;17.17;;;12.90;;
8596;SDS011;4336;49.310;8.646;2023-01-29T06:56:35;13.77;;;12.37;;
8596;SDS011;4336;49.310;8.646;2023-01-29T06:59:01;13.47;;;12.00;;
8596;SDS011;4336;49.310;8.646;2023-01-29T07:01:28;13.63;;;12.23;;
8596;SDS011;4336;49.310;8.646;2023-01-29T07:03:54;14.03;;;12.50;;
8596;SDS011;4336;49.310;8.646;2023-01-29T07:06:20;13.10;;;11.80;;
8596;SDS011;4336;49.310;8.646;2023-01-29T07:08:46;13.93;;;12.40;;
8596;SDS011;4336;49.310;8.646;2023-01-29T07:11:13;13.87;;;12.37;;
8596;SDS011;4336;49.310;8.646;2023-01-29T07:13:39;13.13;;;11.83;;
8596;SDS011;4336;49.310;8.646;2023-01-29T07:16:05;14.47;;;12.97;;
8596;SDS011;4336;49.310;8.646;2023-01-29T07:18:31;14.43;;;12.93;;
8596;SDS011;4336;49.310;8.646;2023-01-29T07:20:57;14.33;;;12.13;;
8596;SDS011;4336;49.310;8.646;2023-01-29T07:23:25;14.67;;;11.87;;
8596;SDS011;4336;49.310;8.646;2023-01-29T07:25:51;13.37;;;11.97;;
8596;SDS011;4336;49.310;8.646;2023-01-29T07:28:18;14.87;;;13.47;;
8596;SDS011;4336;49.310;8.646;2023-01-29T07:30:44;15.37;;;13.10;;
8596;SDS011;4336;49.310;8.646;2023-01-29T07:33:11;16.10;;;13.33;;
8596;SDS011;4336;49.310;8.646;2023-01-29T07:35:38;14.60;;;13.20;;
8596;SDS011;4336;49.310;8.646;2023-01-29T07:38:05;20.77;;;13.63;;
8596;SDS011;4336;49.310;8.646;2023-01-29T07:40:31;14.50;;;13.07;;
8596;SDS011;4336;49.310;8.646;2023-01-29T07:42:58;13.33;;;12.03;;
8596;SDS011;4336;49.310;8.646;2023-01-29T07:45:25;13.27;;;11.40;;
8596;SDS011;4336;49.310;8.646;2023-01-29T07:47:52;12.93;;;11.47;;
8596;SDS011;4336;49.310;8.646;2023-01-29T07:50:22;13.30;;;11.43;;
8596;SDS011;4336;49.310;8.646;2023-01-29T07:52:49;13.57;;;12.13;;
8596;SDS011;4336;49.310;8.646;2023-01-29T07:55:15;14.50;;;11.90;;
8596;SDS011;4336;49.310;8.646;2023-01-29T07:57:42;14.03;;;12.13;;
8596;SDS011;4336;49.310;8.646;2023-01-29T08:00:08;15.83;;;12.50;;
8596;SDS011;4336;49.310;8.646;2023-01-29T08:02:39;14.10;;;12.60;;
8596;SDS011;4336;49.310;8.646;2023-01-29T08:05:08;12.80;;;11.50;;
8596;SDS011;4336;49.310;8.646;2023-01-29T08:07:34;12.50;;;11.20;;
8596;SDS011;4336;49.310;8.646;2023-01-29T08:10:01;14.23;;;12.40;;
8596;SDS011;4336;49.310;8.646;2023-01-29T08:12:27;20.07;;;13.70;;
8596;SDS011;4336;49.310;8.646;2023-01-29T08:14:53;18.93;;;16.20;;
8596;SDS011;4336;49.310;8.646;2023-01-29T08:17:19;17.60;;;14.50;;
8596;SDS011;4336;49.310;8.646;2023-01-29T08:19:44;16.63;;;14.73;;
8596;SDS011;4336;49.310;8.646;2023-01-29T08:22:10;16.50;;;13.20;;
8596;SDS011;4336;49.310;8.646;2023-01-29T08:24:36;14.50;;;12.37;;
8596;SDS011;4336;49.310;8.646;2023-01-29T08:27:02;13.90;;;12.50;;
8596;SDS011;4336;49.310;8.646;2023-01-29T08:29:28;13.77;;;12.00;;
8596;SDS011;4336;49.310;8.646;2023-01-29T08:31:54;15.33;;;12.70;;
8596;SDS011;4336;49.310;8.646;2023-01-29T08:34:20;12.67;;;11.37;;
8596;SDS011;4336;49.310;8.646;2023-01-29T08:36:46;13.90;;;12.40;;
8596;SDS011;4336;49.310;8.646;2023-01-29T08:39:12;13.37;;;11.97;;
8596;SDS011;4336;49.310;8.646;2023-01-29T08:41:37;20.97;;;13.23;;
8596;SDS011;4336;49.310;8.646;2023-01-29T08:44:04;18.83;;;16.83;;
8596;SDS011;4336;49.310;8.646;2023-01-29T08:46:30;16.13;;;14.00;;
8596;SDS011;4336;49.310;8.646;2023-01-29T08:48:56;15.23;;;13.73;;
8596;SDS011;4336;49.310;8.646;2023-01-29T08:51:23;14.27;;;12.83;;
8596;SDS011;4336;49.310;8.646;2023-01-29T08:53:50;16.73;;;14.80;;
8596;SDS011;4336;49.310;8.646;2023-01-29T08:56:16;19.47;;;15.87;;
8596;SDS011;4336;49.310;8.646;2023-01-29T08:58:42;20.03;;;17.23;;
8596;SDS011;4336;49.310;8.646;2023-01-29T09:01:09;17.40;;;14.77;;
8596;SDS011;4336;49.310;8.646;2023-01-29T09:03:36;20.27;;;14.77;;
8596;SDS011;4336;49.310;8.646;2023-01-29T09:06:05;22.40;;;18.60;;
8596;SDS011;4336;49.310;8.646;2023-01-29T09:08:31;16.73;;;14.37;;
8596;SDS011;4336;49.310;8.646;2023-01-29T09:10:58;14.37;;;12.87;;
8596;SDS011;4336;49.310;8.646;2023-01-29T09:13:24;13.80;;;11.23;;
8596;SDS011;4336;49.310;8.646;2023-01-29T09:15:51;16.60;;;13.10;;
8596;SDS011;4336;49.310;8.646;2023-01-29T09:18:17;14.50;;;13.00;;
8596;SDS011;4336;49.310;8.646;2023-01-29T09:20:44;13.87;;;12.23;;
8596;SDS011;4336;49.310;8.646;2023-01-29T09:23:16;14.70;;;13.20;;
8596;SDS011;4336;49.310;8.646;2023-01-29T09:25:42;14.13;;;12.73;;
8596;SDS011;4336;49.310;8.646;2023-01-29T09:28:08;13.90;;;12.33;;
8596;SDS011;4336;49.310;8.646;2023-01-29T09:30:34;11.80;;;10.70;;
8596;SDS011;4336;49.310;8.646;2023-01-29T09:33:05;11.73;;;10.63;;
8596;SDS011;4336;49.310;8.646;2023-01-29T09:35:32;10.80;;;9.80;;
8596;SDS011;4336;49.310;8.646;2023-01-29T09:37:59;10.83;;;9.83;;
8596;SDS011;4336;49.310;8.646;2023-01-29T09:43:22;9.90;;;8.90;;
8596;SDS011;4336;49.310;8.646;2023-01-29T09:45:54;10.03;;;9.13;;
8596;SDS011;4336;49.310;8.646;2023-01-29T09:48:21;14.93;;;13.40;;
8596;SDS011;4336;49.310;8.646;2023-01-29T09:50:48;17.60;;;13.93;;
8596;SDS011;4336;49.310;8.646;2023-01-29T09:53:18;11.20;;;9.93;;
8596;SDS011;4336;49.310;8.646;2023-01-29T09:55:47;12.83;;;10.50;;
8596;SDS011;4336;49.310;8.646;2023-01-29T10:00:50;11.50;;;10.33;;
8596;SDS011;4336;49.310;8.646;2023-01-29T10:05:58;15.77;;;14.17;;
8596;SDS011;4336;49.310;8.646;2023-01-29T10:18:36;16.20;;;14.60;;
8596;SDS011;4336;49.310;8.646;2023-01-29T10:23:32;15.47;;;13.87;;
8596;SDS011;4336;49.310;8.646;2023-01-29T10:25:59;15.00;;;13.00;;
8596;SDS011;4336;49.310;8.646;2023-01-29T10:30:56;14.07;;;12.57;;
8596;SDS011;4336;49.310;8.646;2023-01-29T10:34:11;14.23;;;12.70;;
8596;SDS011;4336;49.310;8.646;2023-01-29T10:36:13;15.60;;;14.10;;
8596;SDS011;4336;49.310;8.646;2023-01-29T10:38:42;16.17;;;14.57;;
8596;SDS011;4336;49.310;8.646;2023-01-29T10:48:49;18.13;;;16.30;;
8596;SDS011;4336;49.310;8.646;2023-01-29T10:51:26;17.70;;;15.83;;
8596;SDS011;4336;49.310;8.646;2023-01-29T10:53:58;17.97;;;16.10;;
8596;SDS011;4336;49.310;8.646;2023-01-29T10:56:39;18.00;;;16.17;;
8596;SDS011;4336;49.310;8.646;2023-01-29T10:59:18;20.87;;;16.20;;
8596;SDS011;4336;49.310;8.646;2023-01-29T11:01:49;17.37;;;15.67;;
8596;SDS011;4336;49.310;8.646;2023-01-29T11:04:15;16.57;;;14.87;;
8596;SDS011;4336;49.310;8.646;2023-01-29T11:06:41;20.93;;;18.67;;
8596;SDS011;4336;49.310;8.646;2023-01-29T11:11:58;18.77;;;15.83;;
8596;SDS011;4336;49.310;8.646;2023-01-29T11:14:26;18.00;;;16.17;;
8596;SDS011;4336;49.310;8.646;2023-01-29T11:16:53;18.27;;;16.33;;
8596;SDS011;4336;49.310;8.646;2023-01-29T11:19:37;16.97;;;15.30;;
8596;SDS011;4336;49.310;8.646;2023-01-29T11:22:04;17.47;;;15.80;;
8596;SDS011;4336;49.310;8.646;2023-01-29T11:24:33;17.47;;;15.70;;
8596;SDS011;4336;49.310;8.646;2023-01-29T11:26:59;21.47;;;18.90;;
8596;SDS011;4336;49.310;8.646;2023-01-29T11:31:51;18.83;;;16.83;;
8596;SDS011;4336;49.310;8.646;2023-01-29T11:34:19;20.33;;;16.97;;
8596;SDS011;4336;49.310;8.646;2023-01-29T11:36:48;17.70;;;15.80;;
8596;SDS011;4336;49.310;8.646;2023-01-29T11:39:21;21.27;;;19.07;;
8596;SDS011;4336;49.310;8.646;2023-01-29T11:44:21;18.53;;;16.73;;
8596;SDS011;4336;49.310;8.646;2023-01-29T11:46:51;18.50;;;16.53;;
8596;SDS011;4336;49.310;8.646;2023-01-29T11:49:22;18.47;;;16.57;;
8596;SDS011;4336;49.310;8.646;2023-01-29T11:51:50;16.87;;;15.27;;
8596;SDS011;4336;49.310;8.646;2023-01-29T11:54:17;18.23;;;16.40;;
8596;SDS011;4336;49.310;8.646;2023-01-29T11:56:44;17.27;;;15.57;;
8596;SDS011;4336;49.310;8.646;2023-01-29T12:02:02;18.33;;;15.33;;
8596;SDS011;4336;49.310;8.646;2023-01-29T12:04:30;16.93;;;15.40;;
8596;SDS011;4336;49.310;8.646;2023-01-29T12:06:56;21.47;;;19.23;;
8596;SDS011;4336;49.310;8.646;2023-01-29T12:09:25;17.73;;;16.03;;
8596;SDS011;4336;49.310;8.646;2023-01-29T12:11:52;17.70;;;15.90;;
8596;SDS011;4336;49.310;8.646;2023-01-29T12:14:29;20.47;;;18.33;;
8596;SDS011;4336;49.310;8.646;2023-01-29T12:19:28;19.83;;;17.83;;
8596;SDS011;4336;49.310;8.646;2023-01-29T12:22:01;17.80;;;16.13;;
8596;SDS011;4336;49.310;8.646;2023-01-29T12:24:39;20.40;;;18.37;;
8596;SDS011;4336;49.310;8.646;2023-01-29T12:27:10;18.80;;;16.83;;
8596;SDS011;4336;49.310;8.646;2023-01-29T12:29:44;21.70;;;19.40;;
8596;SDS011;4336;49.310;8.646;2023-01-29T12:32:21;18.47;;;16.67;;
8596;SDS011;4336;49.310;8.646;2023-01-29T12:39:49;19.07;;;17.13;;
8596;SDS011;4336;49.310;8.646;2023-01-29T12:42:18;24.77;;;20.17;;
8596;SDS011;4336;49.310;8.646;2023-01-29T12:47:18;23.03;;;20.53;;
8596;SDS011;4336;49.310;8.646;2023-01-29T12:49:47;19.07;;;17.00;;
8596;SDS011;4336;49.310;8.646;2023-01-29T12:55:02;16.60;;;15.00;;
8596;SDS011;4336;49.310;8.646;2023-01-29T12:57:33;16.30;;;14.77;;
8596;SDS011;4336;49.310;8.646;2023-01-29T13:00:04;17.80;;;16.03;;
8596;SDS011;4336;49.310;8.646;2023-01-29T13:02:43;29.30;;;21.30;;
8596;SDS011;4336;49.310;8.646;2023-01-29T13:07:41;18.60;;;16.83;;
8596;SDS011;4336;49.310;8.646;2023-01-29T13:10:11;18.67;;;16.77;;
8596;SDS011;4336;49.310;8.646;2023-01-29T13:12:39;18.23;;;16.33;;
8596;SDS011;4336;49.310;8.646;2023-01-29T13:15:16;17.00;;;15.23;;
8596;SDS011;4336;49.310;8.646;2023-01-29T13:17:53;15.80;;;14.20;;
8596;SDS011;4336;49.310;8.646;2023-01-29T13:20:25;16.23;;;14.73;;
8596;SDS011;4336;49.310;8.646;2023-01-29T13:22:53;17.60;;;15.80;;
8596;SDS011;4336;49.310;8.646;2023-01-29T13:25:21;18.90;;;15.43;;
8596;SDS011;4336;49.310;8.646;2023-01-29T13:27:47;17.83;;;15.93;;
8596;SDS011;4336;49.310;8.646;2023-01-29T13:30:27;16.83;;;15.10;;
8596;SDS011;4336;49.310;8.646;2023-01-29T13:32:54;17.33;;;15.53;;
8596;SDS011;4336;49.310;8.646;2023-01-29T13:35:34;18.00;;;16.00;;
8596;SDS011;4336;49.310;8.646;2023-01-29T13:38:01;16.43;;;14.80;;
8596;SDS011;4336;49.310;8.646;2023-01-29T13:40:28;17.43;;;15.73;;
8596;SDS011;4336;49.310;8.646;2023-01-29T13:42:55;16.67;;;14.97;;
8596;SDS011;4336;49.310;8.646;2023-01-29T13:45:27;17.27;;;15.47;;
8596;SDS011;4336;49.310;8.646;2023-01-29T13:48:06;17.93;;;16.10;;
8596;SDS011;4336;49.310;8.646;2023-01-29T13:50:38;22.77;;;19.97;;
8596;SDS011;4336;49.310;8.646;2023-01-29T13:53:06;22.90;;;20.30;;
8596;SDS011;4336;49.310;8.646;2023-01-29T13:55:34;21.83;;;19.60;;
8596;SDS011;4336;49.310;8.646;2023-01-29T13:58:05;21.23;;;16.80;;
8596;SDS011;4336;49.310;8.646;2023-01-29T14:05:42;19.77;;;17.77;;
8596;SDS011;4336;49.310;8.646;2023-01-29T14:10:39;18.40;;;16.60;;
8596;SDS011;4336;49.310;8.646;2023-01-29T14:13:27;19.80;;;17.80;;
8596;SDS011;4336;49.310;8.646;2023-01-29T14:18:25;21.43;;;19.17;;
8596;SDS011;4336;49.310;8.646;2023-01-29T14:21:00;19.53;;;17.47;;
8596;SDS011;4336;49.310;8.646;2023-01-29T14:23:43;23.47;;;20.97;;
8596;SDS011;4336;49.310;8.646;2023-01-29T14:34:06;18.97;;;17.13;;
8596;SDS011;4336;49.310;8.646;2023-01-29T14:36:39;18.00;;;16.27;;
8596;SDS011;4336;49.310;8.646;2023-01-29T14:39:17;17.60;;;15.80;;
8596;SDS011;4336;49.310;8.646;2023-01-29T14:41:45;18.27;;;16.37;;
8596;SDS011;4336;49.310;8.646;2023-01-29T14:46:56;20.13;;;17.00;;
8596;SDS011;4336;49.310;8.646;2023-01-29T14:52:09;19.40;;;17.33;;
8596;SDS011;4336;49.310;8.646;2023-01-29T14:54:36;18.37;;;16.03;;
8596;SDS011;4336;49.310;8.646;2023-01-29T14:57:04;18.93;;;16.93;;
8596;SDS011;4336;49.310;8.646;2023-01-29T14:59:35;18.17;;;16.37;;
8596;SDS011;4336;49.310;8.646;2023-01-29T15:02:19;21.10;;;16.90;;
8596;SDS011;4336;49.310;8.646;2023-01-29T15:04:48;17.73;;;14.73;;
8596;SDS011;4336;49.310;8.646;2023-01-29T15:07:25;19.00;;;17.10;;
8596;SDS011;4336;49.310;8.646;2023-01-29T15:10:03;19.43;;;17.43;;
8596;SDS011;4336;49.310;8.646;2023-01-29T15:15:10;21.97;;;17.87;;
8596;SDS011;4336;49.310;8.646;2023-01-29T15:17:40;22.87;;;18.07;;
8596;SDS011;4336;49.310;8.646;2023-01-29T15:20:24;19.23;;;16.93;;
8596;SDS011;4336;49.310;8.646;2023-01-29T15:22:51;36.13;;;30.17;;
8596;SDS011;4336;49.310;8.646;2023-01-29T15:25:17;19.73;;;17.60;;
8596;SDS011;4336;49.310;8.646;2023-01-29T15:27:45;23.03;;;20.10;;
8596;SDS011;4336;49.310;8.646;2023-01-29T15:30:17;20.47;;;18.13;;
8596;SDS011;4336;49.310;8.646;2023-01-29T15:32:43;17.90;;;16.10;;
8596;SDS011;4336;49.310;8.646;2023-01-29T15:35:24;20.63;;;17.03;;
8596;SDS011;4336;49.310;8.646;2023-01-29T15:37:58;19.87;;;17.80;;
8596;SDS011;4336;49.310;8.646;2023-01-29T15:40:25;19.77;;;17.57;;
8596;SDS011;4336;49.310;8.646;2023-01-29T15:42:51;24.00;;;21.20;;
8596;SDS011;4336;49.310;8.646;2023-01-29T15:47:47;19.80;;;17.67;;
8596;SDS011;4336;49.310;8.646;2023-01-29T15:50:13;20.77;;;18.57;;
8596;SDS011;4336;49.310;8.646;2023-01-29T15:52:39;20.97;;;18.90;;
8596;SDS011;4336;49.310;8.646;2023-01-29T15:55:05;23.57;;;19.80;;
8596;SDS011;4336;49.310;8.646;2023-01-29T15:57:36;22.33;;;18.83;;
8596;SDS011;4336;49.310;8.646;2023-01-29T16:00:06;24.87;;;18.37;;
8596;SDS011;4336;49.310;8.646;2023-01-29T16:02:39;20.07;;;17.83;;
8596;SDS011;4336;49.310;8.646;2023-01-29T16:05:06;21.37;;;17.70;;
8596;SDS011;4336;49.310;8.646;2023-01-29T16:07:35;21.77;;;18.07;;
8596;SDS011;4336;49.310;8.646;2023-01-29T16:10:02;22.40;;;19.20;;
8596;SDS011;4336;49.310;8.646;2023-01-29T16:12:30;21.90;;;19.40;;
8596;SDS011;4336;49.310;8.646;2023-01-29T16:14:57;27.23;;;20.73;;
8596;SDS011;4336;49.310;8.646;2023-01-29T16:17:25;22.60;;;19.50;;
8596;SDS011;4336;49.310;8.646;2023-01-29T16:19:58;21.03;;;18.73;;
8596;SDS011;4336;49.310;8.646;2023-01-29T16:22:25;21.83;;;18.60;;
8596;SDS011;4336;49.310;8.646;2023-01-29T16:24:54;27.07;;;20.67;;
8596;SDS011;4336;49.310;8.646;2023-01-29T16:27:21;25.20;;;19.63;;
8596;SDS011;4336;49.310;8.646;2023-01-29T16:29:49;24.43;;;20.27;;
8596;SDS011;4336;49.310;8.646;2023-01-29T16:32:16;25.73;;;20.97;;
8596;SDS011;4336;49.310;8.646;2023-01-29T16:34:43;24.23;;;20.67;;
8596;SDS011;4336;49.310;8.646;2023-01-29T16:37:22;23.10;;;19.83;;
8596;SDS011;4336;49.310;8.646;2023-01-29T16:39:50;26.30;;;21.40;;
8596;SDS011;4336;49.310;8.646;2023-01-29T16:42:26;26.10;;;22.43;;
8596;SDS011;4336;49.310;8.646;2023-01-29T16:44:59;25.30;;;22.13;;
8596;SDS011;4336;49.310;8.646;2023-01-29T16:47:31;29.30;;;23.73;;
8596;SDS011;4336;49.310;8.646;2023-01-29T16:49:58;31.23;;;26.33;;
8596;SDS011;4336;49.310;8.646;2023-01-29T16:54:58;27.33;;;23.50;;
8596;SDS011;4336;49.310;8.646;2023-01-29T16:57:26;28.03;;;21.73;;
8596;SDS011;4336;49.310;8.646;2023-01-29T16:59:53;28.47;;;22.97;;
8596;SDS011;4336;49.310;8.646;2023-01-29T17:02:27;30.97;;;24.23;;
8596;SDS011;4336;49.310;8.646;2023-01-29T17:04:56;33.37;;;23.67;;